Nasudden, Sweden

5:56 PM CEST on September 30, 2014 (GMT +0200)
Visby | Change Station
CLOSE
Current Station
Airport
Location: Visby Flygplats,
Elevation: 154 ft
Nearby Weather Stations

Elev 154 ft 57.66 °N, 18.35 °E | Updated 6 minutes ago

Clear
Clear
48 °F
Feels Like 48 °F
N
6
Wind Variable Wind from NNE

Today
High -- | Low -- °F
--% Chance of Precip.
Yesterday
High -- | Low -- °F
Precip. -- in
6:48 AM 6:24 PM
Waxing Crescent, 38% visible
Pressure 30.33 in
Visibility -9999.0 miles
Clouds
Dew Point 45 °F
Humidity 87%
Rainfall 0.00 in
Snow Depth Not available.
UV Not available.
Pollen Not available.
Air Quality Not available.
Flu Activity Not available.
METAR ESSV 301550Z 03005KT CAVOK 09/07 Q1027

More Conditions Fewer Conditions

Pressure 30.33 in
Visibility -9999.0 miles
Clouds
Dew Point 45 °F
Humidity 87%
Rainfall 0.00 in
Snow Depth Not available.
UV Not available.
Pollen Not available.
Air Quality Not available.
Flu Activity Not available.
METAR ESSV 301550Z 03005KT CAVOK 09/07 Q1027

More Conditions Fewer Conditions

10-Day Weather Forecast

Almanac

Astronomy

Sep. 30, 2014 Rise Set
Actual Time 6:48 AM CEST 6:24 PM CEST
Civil Twilight 6:10 AM CEST 7:02 PM CEST
Nautical Twilight 5:25 AM CEST 7:47 PM CEST
Astronomical Twilight 4:38 AM CEST 8:34 PM CEST
Moon 1:35 PM CEST 9:42 PM CEST
Length of Visible Light 12h 52m
Length of Day
11h 36m
Tomorrow will be 4m 49s shorter.
Waxing Crescent, 38% of the Moon is Illuminated
Today
Waxing Crescent
Oct 1
First Quarter
Oct 8
Full
Oct 15
Last Quarter
Oct 23
New

Today's Extremes

Country Highs Country Lows

Community

WunderPhotos

Upload Photos

1,757,671 photos uploaded!

Nearby

Snow Depth

Not available.

Earthquake Activity

City Distance Mag. Time & Date
No recent earthquake activity has been reported nearby.
Minimum magnitude displayed is 2.5.

Coastal Water Temperatures

Place Temperature
No Stations Reporting

Nearby Weather Stations